sensor_id;sensor_type;location;lat;lon;timestamp;temperature;humidity
7654;DHT22;3869;48.406;10.774;2022-12-18T00:01:57;-5.10;99.90
7654;DHT22;3869;48.406;10.774;2022-12-18T00:04:27;-5.10;99.90
7654;DHT22;3869;48.406;10.774;2022-12-18T00:06:55;-5.20;99.90
7654;DHT22;3869;48.406;10.774;2022-12-18T00:09:23;-5.20;99.90
7654;DHT22;3869;48.406;10.774;2022-12-18T00:11:57;-5.20;99.90
7654;DHT22;3869;48.406;10.774;2022-12-18T00:14:26;-5.20;99.90
7654;DHT22;3869;48.406;10.774;2022-12-18T00:16:54;-5.20;99.90
7654;DHT22;3869;48.406;10.774;2022-12-18T00:19:22;-5.20;99.90
7654;DHT22;3869;48.406;10.774;2022-12-18T00:21:50;-5.10;99.90
7654;DHT22;3869;48.406;10.774;2022-12-18T00:24:18;-5.20;99.90
7654;DHT22;3869;48.406;10.774;2022-12-18T00:26:46;-5.20;99.90
7654;DHT22;3869;48.406;10.774;2022-12-18T00:29:14;-5.20;99.90
7654;DHT22;3869;48.406;10.774;2022-12-18T00:31:44;-5.20;99.90
7654;DHT22;3869;48.406;10.774;2022-12-18T00:34:12;-5.20;99.90
7654;DHT22;3869;48.406;10.774;2022-12-18T00:36:41;-5.10;99.90
7654;DHT22;3869;48.406;10.774;2022-12-18T00:39:10;-5.00;99.90
7654;DHT22;3869;48.406;10.774;2022-12-18T00:41:38;-4.90;99.90
7654;DHT22;3869;48.406;10.774;2022-12-18T00:44:24;-4.80;99.90
7654;DHT22;3869;48.406;10.774;2022-12-18T00:46:53;-4.70;99.90
7654;DHT22;3869;48.406;10.774;2022-12-18T00:49:21;-4.70;99.90
7654;DHT22;3869;48.406;10.774;2022-12-18T00:51:50;-4.70;99.90
7654;DHT22;3869;48.406;10.774;2022-12-18T00:54:18;-4.80;99.90
7654;DHT22;3869;48.406;10.774;2022-12-18T00:56:46;-4.80;99.90
7654;DHT22;3869;48.406;10.774;2022-12-18T00:59:16;-4.70;99.90
7654;DHT22;3869;48.406;10.774;2022-12-18T01:01:44;-4.70;99.90
7654;DHT22;3869;48.406;10.774;2022-12-18T01:04:14;-4.70;99.90
7654;DHT22;3869;48.406;10.774;2022-12-18T01:06:42;-4.70;99.90
7654;DHT22;3869;48.406;10.774;2022-12-18T01:09:10;-4.80;99.90
7654;DHT22;3869;48.406;10.774;2022-12-18T01:11:38;-4.80;99.90
7654;DHT22;3869;48.406;10.774;2022-12-18T01:14:07;-4.80;99.90
7654;DHT22;3869;48.406;10.774;2022-12-18T01:16:35;-4.80;99.90
7654;DHT22;3869;48.406;10.774;2022-12-18T01:19:03;-4.80;99.90
7654;DHT22;3869;48.406;10.774;2022-12-18T01:21:32;-4.70;99.90
7654;DHT22;3869;48.406;10.774;2022-12-18T01:24:00;-4.80;99.90
7654;DHT22;3869;48.406;10.774;2022-12-18T01:26:28;-4.80;99.90
7654;DHT22;3869;48.406;10.774;2022-12-18T01:28:57;-4.80;99.90
7654;DHT22;3869;48.406;10.774;2022-12-18T01:31:27;-4.80;99.90
7654;DHT22;3869;48.406;10.774;2022-12-18T01:33:56;-4.80;99.90
7654;DHT22;3869;48.406;10.774;2022-12-18T01:36:26;-4.80;99.90
7654;DHT22;3869;48.406;10.774;2022-12-18T01:38:56;-4.80;99.90
7654;DHT22;3869;48.406;10.774;2022-12-18T01:41:26;-4.80;99.90
7654;DHT22;3869;48.406;10.774;2022-12-18T01:44:50;-4.80;99.90
7654;DHT22;3869;48.406;10.774;2022-12-18T01:47:25;-4.80;99.90
7654;DHT22;3869;48.406;10.774;2022-12-18T01:49:54;-4.90;99.90
7654;DHT22;3869;48.406;10.774;2022-12-18T01:52:24;-4.90;99.90
7654;DHT22;3869;48.406;10.774;2022-12-18T01:54:55;-5.00;99.90
7654;DHT22;3869;48.406;10.774;2022-12-18T01:57:24;-5.10;99.90
7654;DHT22;3869;48.406;10.774;2022-12-18T01:59:54;-5.10;99.90
7654;DHT22;3869;48.406;10.774;2022-12-18T02:02:23;-5.00;99.90
7654;DHT22;3869;48.406;10.774;2022-12-18T02:04:51;-5.00;99.90
7654;DHT22;3869;48.406;10.774;2022-12-18T02:07:24;-5.00;99.90
7654;DHT22;3869;48.406;10.774;2022-12-18T02:10:00;-5.00;99.90
7654;DHT22;3869;48.406;10.774;2022-12-18T02:12:35;-5.00;99.90
7654;DHT22;3869;48.406;10.774;2022-12-18T02:15:12;-5.00;99.90
7654;DHT22;3869;48.406;10.774;2022-12-18T02:17:44;-5.00;99.90
7654;DHT22;3869;48.406;10.774;2022-12-18T02:20:16;-5.00;99.90
7654;DHT22;3869;48.406;10.774;2022-12-18T02:22:59;-5.00;99.90
7654;DHT22;3869;48.406;10.774;2022-12-18T02:25:52;-5.10;99.90
7654;DHT22;3869;48.406;10.774;2022-12-18T02:28:26;-5.10;99.90
7654;DHT22;3869;48.406;10.774;2022-12-18T02:30:56;-5.10;99.90
7654;DHT22;3869;48.406;10.774;2022-12-18T02:33:27;-5.00;99.90
7654;DHT22;3869;48.406;10.774;2022-12-18T02:35:58;-5.10;99.90
7654;DHT22;3869;48.406;10.774;2022-12-18T02:38:28;-5.20;99.90
7654;DHT22;3869;48.406;10.774;2022-12-18T02:40:59;-5.20;99.90
7654;DHT22;3869;48.406;10.774;2022-12-18T02:43:29;-5.20;99.90
7654;DHT22;3869;48.406;10.774;2022-12-18T02:45:59;-5.30;99.90
7654;DHT22;3869;48.406;10.774;2022-12-18T02:48:30;-5.30;99.90
7654;DHT22;3869;48.406;10.774;2022-12-18T02:51:03;-5.20;99.90
7654;DHT22;3869;48.406;10.774;2022-12-18T02:53:38;-5.20;99.90
7654;DHT22;3869;48.406;10.774;2022-12-18T02:56:15;-5.20;99.90
7654;DHT22;3869;48.406;10.774;2022-12-18T02:58:49;-5.20;99.90
7654;DHT22;3869;48.406;10.774;2022-12-18T03:01:24;-5.30;99.90
7654;DHT22;3869;48.406;10.774;2022-12-18T03:03:56;-5.30;99.90
7654;DHT22;3869;48.406;10.774;2022-12-18T03:06:28;-5.30;99.90
7654;DHT22;3869;48.406;10.774;2022-12-18T03:09:00;-5.30;99.90
7654;DHT22;3869;48.406;10.774;2022-12-18T03:11:34;-5.30;99.90
7654;DHT22;3869;48.406;10.774;2022-12-18T03:14:22;-5.30;99.90
7654;DHT22;3869;48.406;10.774;2022-12-18T03:16:54;-5.20;99.90
7654;DHT22;3869;48.406;10.774;2022-12-18T03:19:28;-5.20;99.90
7654;DHT22;3869;48.406;10.774;2022-12-18T03:22:00;-5.20;99.90
7654;DHT22;3869;48.406;10.774;2022-12-18T03:24:31;-5.30;99.90
7654;DHT22;3869;48.406;10.774;2022-12-18T03:27:04;-5.30;99.90
7654;DHT22;3869;48.406;10.774;2022-12-18T03:29:37;-5.30;99.90
7654;DHT22;3869;48.406;10.774;2022-12-18T03:32:10;-5.30;99.90
7654;DHT22;3869;48.406;10.774;2022-12-18T03:34:40;-5.30;99.90
7654;DHT22;3869;48.406;10.774;2022-12-18T03:37:09;-5.40;99.90
7654;DHT22;3869;48.406;10.774;2022-12-18T03:39:37;-5.40;99.90
7654;DHT22;3869;48.406;10.774;2022-12-18T03:42:10;-5.40;99.90
7654;DHT22;3869;48.406;10.774;2022-12-18T03:44:45;-5.40;99.90
7654;DHT22;3869;48.406;10.774;2022-12-18T03:47:19;-5.40;99.90
7654;DHT22;3869;48.406;10.774;2022-12-18T03:49:57;-5.40;99.90
7654;DHT22;3869;48.406;10.774;2022-12-18T03:52:30;-5.40;99.90
7654;DHT22;3869;48.406;10.774;2022-12-18T03:55:01;-5.40;99.90
7654;DHT22;3869;48.406;10.774;2022-12-18T03:57:32;-5.30;99.90
7654;DHT22;3869;48.406;10.774;2022-12-18T04:00:04;-5.20;99.90
7654;DHT22;3869;48.406;10.774;2022-12-18T04:02:34;-5.20;99.90
7654;DHT22;3869;48.406;10.774;2022-12-18T04:05:05;-5.10;99.90
7654;DHT22;3869;48.406;10.774;2022-12-18T04:07:35;-5.10;99.90
7654;DHT22;3869;48.406;10.774;2022-12-18T04:10:07;-5.10;99.90
7654;DHT22;3869;48.406;10.774;2022-12-18T04:12:37;-5.00;99.90
7654;DHT22;3869;48.406;10.774;2022-12-18T04:15:06;-5.10;99.90
7654;DHT22;3869;48.406;10.774;2022-12-18T04:17:35;-5.10;99.90
7654;DHT22;3869;48.406;10.774;2022-12-18T04:20:03;-5.10;99.90
7654;DHT22;3869;48.406;10.774;2022-12-18T04:22:31;-5.10;99.90
7654;DHT22;3869;48.406;10.774;2022-12-18T04:24:59;-5.00;99.90
7654;DHT22;3869;48.406;10.774;2022-12-18T04:27:27;-5.10;99.90
7654;DHT22;3869;48.406;10.774;2022-12-18T04:29:57;-5.10;99.90
7654;DHT22;3869;48.406;10.774;2022-12-18T04:32:25;-5.10;99.90
7654;DHT22;3869;48.406;10.774;2022-12-18T04:34:53;-5.00;99.90
7654;DHT22;3869;48.406;10.774;2022-12-18T04:37:21;-5.10;99.90
7654;DHT22;3869;48.406;10.774;2022-12-18T04:39:49;-5.10;99.90
7654;DHT22;3869;48.406;10.774;2022-12-18T04:42:17;-5.00;99.90
7654;DHT22;3869;48.406;10.774;2022-12-18T04:44:45;-5.10;99.90
7654;DHT22;3869;48.406;10.774;2022-12-18T04:47:14;-5.10;99.90
7654;DHT22;3869;48.406;10.774;2022-12-18T04:49:42;-5.10;99.90
7654;DHT22;3869;48.406;10.774;2022-12-18T04:52:10;-5.20;99.90
7654;DHT22;3869;48.406;10.774;2022-12-18T04:54:38;-5.20;99.90
7654;DHT22;3869;48.406;10.774;2022-12-18T04:57:06;-5.20;99.90
7654;DHT22;3869;48.406;10.774;2022-12-18T04:59:34;-5.20;99.90
7654;DHT22;3869;48.406;10.774;2022-12-18T05:02:02;-5.20;99.90
7654;DHT22;3869;48.406;10.774;2022-12-18T05:04:32;-5.20;99.90
7654;DHT22;3869;48.406;10.774;2022-12-18T05:07:00;-5.20;99.90
7654;DHT22;3869;48.406;10.774;2022-12-18T05:09:28;-5.10;99.90
7654;DHT22;3869;48.406;10.774;2022-12-18T05:11:55;-5.20;99.90
7654;DHT22;3869;48.406;10.774;2022-12-18T05:14:23;-5.20;99.90
7654;DHT22;3869;48.406;10.774;2022-12-18T05:16:51;-5.20;99.90
7654;DHT22;3869;48.406;10.774;2022-12-18T05:19:26;-5.30;99.90
7654;DHT22;3869;48.406;10.774;2022-12-18T05:21:55;-5.20;99.90
7654;DHT22;3869;48.406;10.774;2022-12-18T05:24:24;-5.20;99.90
7654;DHT22;3869;48.406;10.774;2022-12-18T05:26:52;-5.10;99.90
7654;DHT22;3869;48.406;10.774;2022-12-18T05:29:20;-5.20;99.90
7654;DHT22;3869;48.406;10.774;2022-12-18T05:31:48;-5.20;99.90
7654;DHT22;3869;48.406;10.774;2022-12-18T05:34:16;-5.20;99.90
7654;DHT22;3869;48.406;10.774;2022-12-18T05:36:44;-5.20;99.90
7654;DHT22;3869;48.406;10.774;2022-12-18T05:39:13;-5.20;99.90
7654;DHT22;3869;48.406;10.774;2022-12-18T05:41:41;-5.20;99.90
7654;DHT22;3869;48.406;10.774;2022-12-18T05:44:09;-5.20;99.90
7654;DHT22;3869;48.406;10.774;2022-12-18T05:46:37;-5.20;99.90
7654;DHT22;3869;48.406;10.774;2022-12-18T05:49:06;-5.20;99.90
7654;DHT22;3869;48.406;10.774;2022-12-18T05:51:34;-5.10;99.90
7654;DHT22;3869;48.406;10.774;2022-12-18T05:54:02;-5.20;99.90
7654;DHT22;3869;48.406;10.774;2022-12-18T05:56:32;-5.30;99.90
7654;DHT22;3869;48.406;10.774;2022-12-18T05:59:00;-5.30;99.90
7654;DHT22;3869;48.406;10.774;2022-12-18T06:01:28;-5.20;99.90
7654;DHT22;3869;48.406;10.774;2022-12-18T06:03:56;-5.20;99.90
7654;DHT22;3869;48.406;10.774;2022-12-18T06:06:26;-5.20;99.90
7654;DHT22;3869;48.406;10.774;2022-12-18T06:08:57;-5.20;99.90
7654;DHT22;3869;48.406;10.774;2022-12-18T06:11:26;-5.10;99.90
7654;DHT22;3869;48.406;10.774;2022-12-18T06:13:56;-5.10;99.90
7654;DHT22;3869;48.406;10.774;2022-12-18T06:16:26;-5.20;99.90
7654;DHT22;3869;48.406;10.774;2022-12-18T06:18:56;-5.20;99.90
7654;DHT22;3869;48.406;10.774;2022-12-18T06:21:25;-5.30;99.90
7654;DHT22;3869;48.406;10.774;2022-12-18T06:23:53;-5.20;99.90
7654;DHT22;3869;48.406;10.774;2022-12-18T06:26:21;-5.20;99.90
7654;DHT22;3869;48.406;10.774;2022-12-18T06:28:55;-5.10;99.90
7654;DHT22;3869;48.406;10.774;2022-12-18T06:31:24;-5.10;99.90
7654;DHT22;3869;48.406;10.774;2022-12-18T06:33:52;-5.20;99.90
7654;DHT22;3869;48.406;10.774;2022-12-18T06:36:20;-5.30;99.90
7654;DHT22;3869;48.406;10.774;2022-12-18T06:38:48;-5.30;99.90
7654;DHT22;3869;48.406;10.774;2022-12-18T06:41:18;-5.30;99.90
7654;DHT22;3869;48.406;10.774;2022-12-18T06:43:47;-5.30;99.90
7654;DHT22;3869;48.406;10.774;2022-12-18T06:46:16;-5.30;99.90
7654;DHT22;3869;48.406;10.774;2022-12-18T06:48:47;-5.30;99.90
7654;DHT22;3869;48.406;10.774;2022-12-18T06:51:19;-5.30;99.90
7654;DHT22;3869;48.406;10.774;2022-12-18T06:53:47;-5.30;99.90
7654;DHT22;3869;48.406;10.774;2022-12-18T06:56:15;-5.20;99.90
7654;DHT22;3869;48.406;10.774;2022-12-18T06:58:43;-5.20;99.90
7654;DHT22;3869;48.406;10.774;2022-12-18T07:01:12;-5.10;99.90
7654;DHT22;3869;48.406;10.774;2022-12-18T07:03:42;-5.10;99.90
7654;DHT22;3869;48.406;10.774;2022-12-18T07:06:14;-5.10;99.90
7654;DHT22;3869;48.406;10.774;2022-12-18T07:08:43;-5.00;99.90
7654;DHT22;3869;48.406;10.774;2022-12-18T07:11:11;-5.00;99.90
7654;DHT22;3869;48.406;10.774;2022-12-18T07:13:39;-4.90;99.90
7654;DHT22;3869;48.406;10.774;2022-12-18T07:16:10;-4.90;99.90
7654;DHT22;3869;48.406;10.774;2022-12-18T07:18:48;-4.90;99.90
7654;DHT22;3869;48.406;10.774;2022-12-18T07:21:17;-4.90;99.90
7654;DHT22;3869;48.406;10.774;2022-12-18T07:23:46;-4.90;99.90
7654;DHT22;3869;48.406;10.774;2022-12-18T07:26:16;-4.90;99.90
7654;DHT22;3869;48.406;10.774;2022-12-18T07:28:44;-4.90;99.90
7654;DHT22;3869;48.406;10.774;2022-12-18T07:31:15;-5.00;99.90
7654;DHT22;3869;48.406;10.774;2022-12-18T07:33:44;-5.00;99.90
7654;DHT22;3869;48.406;10.774;2022-12-18T07:36:14;-5.00;99.90
7654;DHT22;3869;48.406;10.774;2022-12-18T07:38:42;-4.90;99.90
7654;DHT22;3869;48.406;10.774;2022-12-18T07:41:12;-4.90;99.90
7654;DHT22;3869;48.406;10.774;2022-12-18T07:43:41;-4.90;99.90
7654;DHT22;3869;48.406;10.774;2022-12-18T07:46:11;-4.80;99.90
7654;DHT22;3869;48.406;10.774;2022-12-18T07:48:41;-4.80;99.90
7654;DHT22;3869;48.406;10.774;2022-12-18T07:51:09;-4.90;99.90
7654;DHT22;3869;48.406;10.774;2022-12-18T07:53:39;-4.90;99.90
7654;DHT22;3869;48.406;10.774;2022-12-18T07:56:10;-4.90;99.90
7654;DHT22;3869;48.406;10.774;2022-12-18T07:58:56;-4.90;99.90
7654;DHT22;3869;48.406;10.774;2022-12-18T08:01:24;-4.80;99.90
7654;DHT22;3869;48.406;10.774;2022-12-18T08:03:53;-4.70;99.90
7654;DHT22;3869;48.406;10.774;2022-12-18T08:06:21;-4.60;99.90
7654;DHT22;3869;48.406;10.774;2022-12-18T08:08:52;-4.60;99.90
7654;DHT22;3869;48.406;10.774;2022-12-18T08:11:21;-4.70;99.90
7654;DHT22;3869;48.406;10.774;2022-12-18T08:13:49;-4.60;99.90
7654;DHT22;3869;48.406;10.774;2022-12-18T08:16:18;-4.60;99.90
7654;DHT22;3869;48.406;10.774;2022-12-18T08:18:46;-4.60;99.90
7654;DHT22;3869;48.406;10.774;2022-12-18T08:21:16;-4.60;99.90
7654;DHT22;3869;48.406;10.774;2022-12-18T08:23:47;-4.60;99.90
7654;DHT22;3869;48.406;10.774;2022-12-18T08:26:19;-4.60;99.90
7654;DHT22;3869;48.406;10.774;2022-12-18T08:28:47;-4.60;99.90
7654;DHT22;3869;48.406;10.774;2022-12-18T08:31:16;-4.60;99.90
7654;DHT22;3869;48.406;10.774;2022-12-18T08:33:44;-4.60;99.90
7654;DHT22;3869;48.406;10.774;2022-12-18T08:36:12;-4.60;99.90
7654;DHT22;3869;48.406;10.774;2022-12-18T08:38:40;-4.50;99.90
7654;DHT22;3869;48.406;10.774;2022-12-18T08:41:13;-4.50;99.90
7654;DHT22;3869;48.406;10.774;2022-12-18T08:43:43;-4.50;99.90
7654;DHT22;3869;48.406;10.774;2022-12-18T08:46:34;-4.40;99.90
7654;DHT22;3869;48.406;10.774;2022-12-18T08:49:03;-4.30;99.90
7654;DHT22;3869;48.406;10.774;2022-12-18T08:51:32;-4.30;99.90
7654;DHT22;3869;48.406;10.774;2022-12-18T08:54:00;-4.30;99.90
7654;DHT22;3869;48.406;10.774;2022-12-18T08:56:30;-4.30;99.90
7654;DHT22;3869;48.406;10.774;2022-12-18T08:58:59;-4.30;99.90
7654;DHT22;3869;48.406;10.774;2022-12-18T09:01:27;-4.20;99.90
7654;DHT22;3869;48.406;10.774;2022-12-18T09:03:56;-4.10;99.90
7654;DHT22;3869;48.406;10.774;2022-12-18T09:06:24;-4.20;99.90
7654;DHT22;3869;48.406;10.774;2022-12-18T09:08:53;-4.10;99.90
7654;DHT22;3869;48.406;10.774;2022-12-18T09:11:23;-4.10;99.90
7654;DHT22;3869;48.406;10.774;2022-12-18T09:13:52;-4.20;99.90
7654;DHT22;3869;48.406;10.774;2022-12-18T09:16:22;-4.20;99.90
7654;DHT22;3869;48.406;10.774;2022-12-18T09:18:58;-4.10;99.90
7654;DHT22;3869;48.406;10.774;2022-12-18T09:21:28;-4.00;99.90
7654;DHT22;3869;48.406;10.774;2022-12-18T09:23:58;-4.20;99.90
7654;DHT22;3869;48.406;10.774;2022-12-18T09:26:26;-4.30;99.90
7654;DHT22;3869;48.406;10.774;2022-12-18T09:28:54;-4.30;99.90
7654;DHT22;3869;48.406;10.774;2022-12-18T09:31:24;-4.30;99.90
7654;DHT22;3869;48.406;10.774;2022-12-18T09:33:54;-4.40;99.90
7654;DHT22;3869;48.406;10.774;2022-12-18T09:36:22;-4.30;99.90
7654;DHT22;3869;48.406;10.774;2022-12-18T09:38:50;-4.30;99.90
7654;DHT22;3869;48.406;10.774;2022-12-18T09:41:33;-4.30;99.90
7654;DHT22;3869;48.406;10.774;2022-12-18T09:44:10;-4.20;99.90
7654;DHT22;3869;48.406;10.774;2022-12-18T09:46:45;-4.20;99.90
7654;DHT22;3869;48.406;10.774;2022-12-18T09:49:17;-4.20;99.90
7654;DHT22;3869;48.406;10.774;2022-12-18T09:51:50;-4.10;99.90
7654;DHT22;3869;48.406;10.774;2022-12-18T09:54:22;-4.00;99.90
7654;DHT22;3869;48.406;10.774;2022-12-18T09:56:53;-3.90;99.90
7654;DHT22;3869;48.406;10.774;2022-12-18T09:59:24;-3.90;99.90
7654;DHT22;3869;48.406;10.774;2022-12-18T10:01:55;-3.90;99.90
7654;DHT22;3869;48.406;10.774;2022-12-18T10:04:24;-4.00;99.90
7654;DHT22;3869;48.406;10.774;2022-12-18T10:06:59;-4.00;99.90
7654;DHT22;3869;48.406;10.774;2022-12-18T10:09:38;-4.10;99.90
7654;DHT22;3869;48.406;10.774;2022-12-18T10:12:13;-4.20;99.90
7654;DHT22;3869;48.406;10.774;2022-12-18T10:14:50;-4.20;99.90
7654;DHT22;3869;48.406;10.774;2022-12-18T10:17:28;-4.10;99.90
7654;DHT22;3869;48.406;10.774;2022-12-18T10:20:09;-4.10;99.90
7654;DHT22;3869;48.406;10.774;2022-12-18T10:22:45;-4.00;99.90
7654;DHT22;3869;48.406;10.774;2022-12-18T10:25:21;-3.90;99.90
7654;DHT22;3869;48.406;10.774;2022-12-18T10:27:53;-3.80;99.90
7654;DHT22;3869;48.406;10.774;2022-12-18T10:30:24;-3.70;99.90
7654;DHT22;3869;48.406;10.774;2022-12-18T10:32:53;-3.70;99.90
7654;DHT22;3869;48.406;10.774;2022-12-18T10:35:25;-3.70;99.90
7654;DHT22;3869;48.406;10.774;2022-12-18T10:38:05;-3.80;99.90
7654;DHT22;3869;48.406;10.774;2022-12-18T10:40:48;-3.80;99.90
7654;DHT22;3869;48.406;10.774;2022-12-18T10:43:20;-4.00;99.90
7654;DHT22;3869;48.406;10.774;2022-12-18T10:46:07;-4.00;99.90
7654;DHT22;3869;48.406;10.774;2022-12-18T10:48:51;-3.90;99.90
7654;DHT22;3869;48.406;10.774;2022-12-18T10:51:22;-3.80;99.90
7654;DHT22;3869;48.406;10.774;2022-12-18T10:53:56;-3.70;99.90
7654;DHT22;3869;48.406;10.774;2022-12-18T10:56:27;-3.60;99.90
7654;DHT22;3869;48.406;10.774;2022-12-18T10:58:58;-3.60;99.90
7654;DHT22;3869;48.406;10.774;2022-12-18T11:01:27;-3.70;99.90
7654;DHT22;3869;48.406;10.774;2022-12-18T11:04:04;-3.60;99.90
7654;DHT22;3869;48.406;10.774;2022-12-18T11:06:53;-3.80;99.90
7654;DHT22;3869;48.406;10.774;2022-12-18T11:09:23;-3.80;99.90
7654;DHT22;3869;48.406;10.774;2022-12-18T11:11:52;-3.90;99.90
7654;DHT22;3869;48.406;10.774;2022-12-18T11:14:23;-4.00;99.90
7654;DHT22;3869;48.406;10.774;2022-12-18T11:16:52;-3.90;99.90
7654;DHT22;3869;48.406;10.774;2022-12-18T11:19:43;-3.80;99.90
7654;DHT22;3869;48.406;10.774;2022-12-18T11:22:20;-4.00;99.90
7654;DHT22;3869;48.406;10.774;2022-12-18T11:24:55;-4.10;99.90
7654;DHT22;3869;48.406;10.774;2022-12-18T11:27:48;-4.10;99.90
7654;DHT22;3869;48.406;10.774;2022-12-18T11:30:22;-4.20;99.90
7654;DHT22;3869;48.406;10.774;2022-12-18T11:32:53;-4.20;99.90
7654;DHT22;3869;48.406;10.774;2022-12-18T11:35:30;-4.10;99.90
7654;DHT22;3869;48.406;10.774;2022-12-18T11:38:06;-4.00;99.90
7654;DHT22;3869;48.406;10.774;2022-12-18T11:40:41;-3.90;99.90
7654;DHT22;3869;48.406;10.774;2022-12-18T11:43:13;-3.80;99.90
7654;DHT22;3869;48.406;10.774;2022-12-18T11:45:47;-3.70;99.90
7654;DHT22;3869;48.406;10.774;2022-12-18T11:48:18;-3.60;99.90
7654;DHT22;3869;48.406;10.774;2022-12-18T11:50:52;-3.50;99.90
7654;DHT22;3869;48.406;10.774;2022-12-18T11:53:20;-3.40;99.90
7654;DHT22;3869;48.406;10.774;2022-12-18T11:56:04;-3.30;99.90
7654;DHT22;3869;48.406;10.774;2022-12-18T11:58:44;-3.30;99.90
7654;DHT22;3869;48.406;10.774;2022-12-18T12:01:22;-3.30;99.90
7654;DHT22;3869;48.406;10.774;2022-12-18T12:04:10;-3.30;99.90
7654;DHT22;3869;48.406;10.774;2022-12-18T12:06:52;-3.30;99.90
7654;DHT22;3869;48.406;10.774;2022-12-18T12:09:33;-3.20;99.90
7654;DHT22;3869;48.406;10.774;2022-12-18T12:12:15;-3.20;99.90
7654;DHT22;3869;48.406;10.774;2022-12-18T12:14:57;-3.20;99.90
7654;DHT22;3869;48.406;10.774;2022-12-18T12:17:34;-3.20;99.90
7654;DHT22;3869;48.406;10.774;2022-12-18T12:20:10;-3.10;99.90
7654;DHT22;3869;48.406;10.774;2022-12-18T12:22:52;-3.10;99.90
7654;DHT22;3869;48.406;10.774;2022-12-18T12:25:31;-3.30;99.90
7654;DHT22;3869;48.406;10.774;2022-12-18T12:28:10;-3.40;99.90
7654;DHT22;3869;48.406;10.774;2022-12-18T12:30:51;-3.40;99.90
7654;DHT22;3869;48.406;10.774;2022-12-18T12:33:32;-3.40;99.90
7654;DHT22;3869;48.406;10.774;2022-12-18T12:36:09;-3.30;99.90
7654;DHT22;3869;48.406;10.774;2022-12-18T12:38:44;-3.10;99.90
7654;DHT22;3869;48.406;10.774;2022-12-18T12:41:20;-3.00;99.90
7654;DHT22;3869;48.406;10.774;2022-12-18T12:44:08;-3.00;99.90
7654;DHT22;3869;48.406;10.774;2022-12-18T12:46:42;-2.90;99.90
7654;DHT22;3869;48.406;10.774;2022-12-18T12:49:15;-2.80;99.90
7654;DHT22;3869;48.406;10.774;2022-12-18T12:51:57;-2.70;99.90
7654;DHT22;3869;48.406;10.774;2022-12-18T12:54:28;-2.70;99.90
7654;DHT22;3869;48.406;10.774;2022-12-18T12:57:01;-2.70;99.90
7654;DHT22;3869;48.406;10.774;2022-12-18T12:59:37;-2.70;99.90
7654;DHT22;3869;48.406;10.774;2022-12-18T13:02:15;-2.70;99.90
7654;DHT22;3869;48.406;10.774;2022-12-18T13:04:49;-2.70;99.90
7654;DHT22;3869;48.406;10.774;2022-12-18T13:07:26;-2.80;99.90
7654;DHT22;3869;48.406;10.774;2022-12-18T13:10:24;-3.00;99.90
7654;DHT22;3869;48.406;10.774;2022-12-18T13:12:57;-3.10;99.90
7654;DHT22;3869;48.406;10.774;2022-12-18T13:15:29;-3.00;99.90
7654;DHT22;3869;48.406;10.774;2022-12-18T13:18:15;-3.00;99.90
7654;DHT22;3869;48.406;10.774;2022-12-18T13:20:45;-2.90;99.90
7654;DHT22;3869;48.406;10.774;2022-12-18T13:23:29;-2.80;99.90
7654;DHT22;3869;48.406;10.774;2022-12-18T13:26:00;-2.90;99.90
7654;DHT22;3869;48.406;10.774;2022-12-18T13:28:56;-2.90;99.90
7654;DHT22;3869;48.406;10.774;2022-12-18T13:34:36;-2.90;99.90
7654;DHT22;3869;48.406;10.774;2022-12-18T13:37:42;-2.90;99.90
7654;DHT22;3869;48.406;10.774;2022-12-18T13:43:33;-2.90;99.90
7654;DHT22;3869;48.406;10.774;2022-12-18T13:46:05;-3.10;99.90
7654;DHT22;3869;48.406;10.774;2022-12-18T13:48:37;-3.40;99.90
7654;DHT22;3869;48.406;10.774;2022-12-18T13:51:09;-3.60;99.90
7654;DHT22;3869;48.406;10.774;2022-12-18T13:53:43;-3.80;99.90
7654;DHT22;3869;48.406;10.774;2022-12-18T13:56:16;-3.80;99.90
7654;DHT22;3869;48.406;10.774;2022-12-18T13:58:45;-3.80;99.90
7654;DHT22;3869;48.406;10.774;2022-12-18T14:01:22;-3.80;99.90
7654;DHT22;3869;48.406;10.774;2022-12-18T14:03:50;-3.20;99.90
7654;DHT22;3869;48.406;10.774;2022-12-18T14:06:18;-3.90;99.90
7654;DHT22;3869;48.406;10.774;2022-12-18T14:08:47;-3.90;99.90
7654;DHT22;3869;48.406;10.774;2022-12-18T14:11:20;-3.90;99.90
7654;DHT22;3869;48.406;10.774;2022-12-18T14:13:53;-3.80;99.90
7654;DHT22;3869;48.406;10.774;2022-12-18T14:16:21;-3.70;99.90
7654;DHT22;3869;48.406;10.774;2022-12-18T14:18:54;-3.70;99.90
7654;DHT22;3869;48.406;10.774;2022-12-18T14:21:40;-3.70;99.90
7654;DHT22;3869;48.406;10.774;2022-12-18T14:24:14;-3.60;99.90
7654;DHT22;3869;48.406;10.774;2022-12-18T14:26:46;-3.50;99.90
7654;DHT22;3869;48.406;10.774;2022-12-18T14:29:23;-3.50;99.90
7654;DHT22;3869;48.406;10.774;2022-12-18T14:32:10;-3.50;99.90
7654;DHT22;3869;48.406;10.774;2022-12-18T14:34:44;-3.50;99.90
7654;DHT22;3869;48.406;10.774;2022-12-18T14:37:13;-3.50;99.90
7654;DHT22;3869;48.406;10.774;2022-12-18T14:39:52;-3.60;99.90
7654;DHT22;3869;48.406;10.774;2022-12-18T14:42:20;-3.60;99.90
7654;DHT22;3869;48.406;10.774;2022-12-18T14:44:50;-3.70;99.90
7654;DHT22;3869;48.406;10.774;2022-12-18T14:47:38;-3.70;99.90
7654;DHT22;3869;48.406;10.774;2022-12-18T14:50:12;-3.70;99.90
7654;DHT22;3869;48.406;10.774;2022-12-18T14:52:41;-3.80;99.90
7654;DHT22;3869;48.406;10.774;2022-12-18T14:55:15;-3.80;99.90
7654;DHT22;3869;48.406;10.774;2022-12-18T14:57:44;-3.80;99.90
7654;DHT22;3869;48.406;10.774;2022-12-18T15:00:18;-3.70;99.90
7654;DHT22;3869;48.406;10.774;2022-12-18T15:02:48;-3.60;99.90
7654;DHT22;3869;48.406;10.774;2022-12-18T15:05:20;-3.60;99.90
7654;DHT22;3869;48.406;10.774;2022-12-18T15:07:50;-3.60;99.90
7654;DHT22;3869;48.406;10.774;2022-12-18T15:10:20;-3.60;99.90
7654;DHT22;3869;48.406;10.774;2022-12-18T15:12:49;-3.50;99.90
7654;DHT22;3869;48.406;10.774;2022-12-18T15:15:48;-3.50;99.90
7654;DHT22;3869;48.406;10.774;2022-12-18T15:18:18;-3.50;99.90
7654;DHT22;3869;48.406;10.774;2022-12-18T15:20:49;-3.70;99.90
7654;DHT22;3869;48.406;10.774;2022-12-18T15:23:20;-3.80;99.90
7654;DHT22;3869;48.406;10.774;2022-12-18T15:25:54;-3.80;99.90
7654;DHT22;3869;48.406;10.774;2022-12-18T15:28:24;-3.80;99.90
7654;DHT22;3869;48.406;10.774;2022-12-18T15:31:02;-4.00;99.90
7654;DHT22;3869;48.406;10.774;2022-12-18T15:33:33;-4.10;99.90
7654;DHT22;3869;48.406;10.774;2022-12-18T15:36:04;-4.30;99.90
7654;DHT22;3869;48.406;10.774;2022-12-18T15:38:32;-4.30;99.90
7654;DHT22;3869;48.406;10.774;2022-12-18T15:41:00;-4.20;99.90
7654;DHT22;3869;48.406;10.774;2022-12-18T15:43:30;-4.20;99.90
7654;DHT22;3869;48.406;10.774;2022-12-18T15:46:02;-4.20;99.90
7654;DHT22;3869;48.406;10.774;2022-12-18T15:48:32;-4.20;99.90
7654;DHT22;3869;48.406;10.774;2022-12-18T15:51:01;-4.20;99.90
7654;DHT22;3869;48.406;10.774;2022-12-18T15:53:30;-4.20;99.90
7654;DHT22;3869;48.406;10.774;2022-12-18T15:56:00;-4.30;99.90
7654;DHT22;3869;48.406;10.774;2022-12-18T15:58:45;-4.30;99.90
7654;DHT22;3869;48.406;10.774;2022-12-18T16:01:15;-4.30;99.90
7654;DHT22;3869;48.406;10.774;2022-12-18T16:03:43;-4.30;99.90
7654;DHT22;3869;48.406;10.774;2022-12-18T16:06:12;-4.30;99.90
7654;DHT22;3869;48.406;10.774;2022-12-18T16:08:40;-4.30;99.90
7654;DHT22;3869;48.406;10.774;2022-12-18T16:11:20;-4.20;99.90
7654;DHT22;3869;48.406;10.774;2022-12-18T16:14:05;-4.20;99.90
7654;DHT22;3869;48.406;10.774;2022-12-18T16:16:35;-4.20;99.90
7654;DHT22;3869;48.406;10.774;2022-12-18T16:19:03;-4.30;99.90
7654;DHT22;3869;48.406;10.774;2022-12-18T16:21:31;-4.30;99.90
7654;DHT22;3869;48.406;10.774;2022-12-18T16:24:00;-4.30;99.90